Minneapolis, Kansas
Current Conditions -  °F | °C
As of 3:53 AM on Sunday 21 Dec 2014 (Local Time) from KSLN Reporting Station
Broken Clouds Broken Clouds  
Wind Chill: 29°   Ceiling: 1400
Heat Index: 37°   Visibility: 7mi
Dew Point: 35°   Wind: 13mph
Humidity: 93%   Direction: 190°S
Pressure: 30"   Gusts: NA
Location:  39.12°N, 97.71°W
Report Text: KSLN 210953Z AUTO 19011KT 7SM BKN014 03/02 A3000 RMK AO2 SLP162 T00280017
Loading
Personal Weather Stations






























Interactive Weather Map New forecast layout! Learn more

10-Day Weather Forecast

Advertisements
Track Severe Weather on mobile